createdAt,value
2022-09-06T00:01:15.264Z,1.02
2022-09-06T00:03:42.969Z,1.27
2022-09-06T00:06:16.339Z,1.35
2022-09-06T00:08:44.983Z,1.05
2022-09-06T00:11:13.383Z,1.20
2022-09-06T00:13:40.908Z,0.75
2022-09-06T00:16:14.326Z,1.10
2022-09-06T00:18:42.468Z,1.17
2022-09-06T00:21:21.588Z,1.35
2022-09-06T00:23:49.556Z,1.08
2022-09-06T00:26:18.742Z,1.20
2022-09-06T00:28:46.118Z,1.48
2022-09-06T00:31:22.699Z,1.38
2022-09-06T00:33:53.963Z,1.40
2022-09-06T00:36:21.946Z,1.13
2022-09-06T00:38:51.255Z,1.40
2022-09-06T00:41:19.462Z,1.10
2022-09-06T00:43:46.656Z,1.13
2022-09-06T00:46:23.968Z,1.10
2022-09-06T00:48:59.135Z,1.33
2022-09-06T00:51:28.435Z,0.85
2022-09-06T00:53:56.196Z,1.13
2022-09-06T00:56:25.280Z,1.65
2022-09-06T00:58:52.562Z,0.98
2022-09-06T01:01:19.857Z,1.33
2022-09-06T01:03:47.080Z,1.25
2022-09-06T01:06:22.545Z,0.80
2022-09-06T01:09:32.296Z,1.10
2022-09-06T01:12:04.604Z,1.50
2022-09-06T01:14:44.642Z,0.95
2022-09-06T01:17:33.522Z,1.27
2022-09-06T01:20:10.300Z,1.33
2022-09-06T01:23:14.729Z,0.90
2022-09-06T01:26:02.955Z,1.00
2022-09-06T01:28:36.138Z,0.73
2022-09-06T01:31:42.796Z,0.90
2022-09-06T01:34:31.995Z,1.05
2022-09-06T01:37:10.804Z,1.27
2022-09-06T01:39:40.680Z,1.20
2022-09-06T01:42:22.606Z,1.13
2022-09-06T01:45:23.147Z,1.25
2022-09-06T01:48:12.199Z,1.00
2022-09-06T01:50:39.127Z,0.98
2022-09-06T01:53:15.507Z,1.55
2022-09-06T01:55:56.283Z,1.30
2022-09-06T01:58:47.269Z,1.60
2022-09-06T02:01:23.916Z,1.63
2022-09-06T02:04:09.660Z,1.70
2022-09-06T02:06:44.646Z,1.50
2022-09-06T02:09:17.873Z,1.45
2022-09-06T02:12:06.046Z,1.30
2022-09-06T02:15:00.290Z,1.63
2022-09-06T02:17:32.752Z,1.40
2022-09-06T02:20:06.468Z,1.63
2022-09-06T02:22:41.485Z,1.48
2022-09-06T02:25:12.453Z,1.58
2022-09-06T02:27:40.291Z,1.45
2022-09-06T02:30:08.555Z,1.55
2022-09-06T02:32:41.139Z,2.28
2022-09-06T02:35:17.506Z,2.03
2022-09-06T02:37:47.804Z,1.83
2022-09-06T02:40:15.129Z,1.50
2022-09-06T02:42:42.781Z,2.15
2022-09-06T02:45:10.411Z,2.25
2022-09-06T02:47:40.735Z,1.63
2022-09-06T02:50:08.813Z,1.80
2022-09-06T02:52:36.365Z,1.85
2022-09-06T02:55:07.857Z,1.55
2022-09-06T02:57:35.580Z,1.85
2022-09-06T03:00:06.442Z,1.52
2022-09-06T03:02:34.446Z,1.67
2022-09-06T03:05:03.216Z,1.42
2022-09-06T03:07:30.497Z,1.55
2022-09-06T03:09:57.753Z,1.90
2022-09-06T03:12:25.137Z,2.50
2022-09-06T03:14:54.983Z,1.95
2022-09-06T03:17:25.375Z,3.17
2022-09-06T03:19:52.801Z,2.70
2022-09-06T03:23:13.596Z,2.17
2022-09-06T03:25:48.240Z,1.55
2022-09-06T03:28:25.998Z,1.58
2022-09-06T03:30:54.022Z,1.98
2022-09-06T03:33:25.383Z,1.50
2022-09-06T03:35:58.222Z,2.10
2022-09-06T03:38:30.581Z,1.95
2022-09-06T03:41:03.159Z,1.92
2022-09-06T03:43:40.531Z,1.85
2022-09-06T03:46:19.099Z,2.22
2022-09-06T03:49:06.752Z,1.92
2022-09-06T03:52:50.233Z,2.55
2022-09-06T04:00:35.658Z,1.60
2022-09-06T04:03:05.669Z,1.35
2022-09-06T04:05:33.053Z,1.77
2022-09-06T04:08:03.360Z,1.45
2022-09-06T04:14:46.399Z,2.20
2022-09-06T04:17:14.873Z,1.35
2022-09-06T04:19:42.398Z,1.30
2022-09-06T04:22:12.348Z,1.33
2022-09-06T04:24:39.903Z,1.05
2022-09-06T04:27:07.343Z,1.60
2022-09-06T04:29:34.713Z,1.08
2022-09-06T04:32:07.183Z,0.90
2022-09-06T04:34:34.696Z,1.05
2022-09-06T04:37:03.039Z,1.83
2022-09-06T04:39:30.405Z,1.58
2022-09-06T04:41:57.626Z,1.80
2022-09-06T04:44:24.734Z,1.45
2022-09-06T04:47:08.812Z,2.08
2022-09-06T04:49:37.418Z,1.02
2022-09-06T04:52:04.474Z,1.50
2022-09-06T04:54:32.300Z,1.92
2022-09-06T04:57:03.564Z,1.40
2022-09-06T04:59:31.051Z,1.50
2022-09-06T05:02:10.023Z,1.25
2022-09-06T05:04:43.937Z,0.95
2022-09-06T05:08:05.464Z,1.33
2022-09-06T05:10:44.836Z,1.55
2022-09-06T05:13:14.560Z,1.30
2022-09-06T05:15:41.718Z,2.25
2022-09-06T05:18:12.826Z,1.52
2022-09-06T05:23:12.924Z,1.92
2022-09-06T05:25:43.472Z,1.75
2022-09-06T05:28:11.534Z,1.65
2022-09-06T05:30:44.121Z,1.75
2022-09-06T05:33:13.997Z,1.60
2022-09-06T05:35:41.358Z,1.40
2022-09-06T05:38:09.269Z,1.27
2022-09-06T05:40:36.895Z,1.42
2022-09-06T05:43:04.325Z,0.98
2022-09-06T05:45:31.789Z,1.05
2022-09-06T05:47:59.031Z,1.30
2022-09-06T05:50:36.136Z,1.20
2022-09-06T05:53:05.639Z,1.00
2022-09-06T05:55:35.553Z,0.88
2022-09-06T05:58:02.806Z,0.90
2022-09-06T06:00:32.618Z,1.35
2022-09-06T06:02:59.725Z,0.90
2022-09-06T06:05:26.875Z,1.48
2022-09-06T06:07:55.790Z,1.20
2022-09-06T06:10:23.716Z,1.10
2022-09-06T06:12:50.831Z,1.23
2022-09-06T06:15:18.004Z,0.82
2022-09-06T06:17:47.458Z,1.27
2022-09-06T06:20:15.095Z,1.50
2022-09-06T06:22:42.371Z,1.20
2022-09-06T06:25:12.479Z,1.38
2022-09-06T06:27:39.991Z,1.75
2022-09-06T06:30:14.209Z,1.10
2022-09-06T06:32:44.944Z,1.52
2022-09-06T06:35:13.008Z,1.15
2022-09-06T06:37:40.443Z,1.65
2022-09-06T06:40:08.651Z,2.33
2022-09-06T06:42:36.262Z,1.80
2022-09-06T06:45:07.609Z,2.15
2022-09-06T06:47:35.058Z,2.25
2022-09-06T06:50:02.629Z,1.90
2022-09-06T06:52:30.974Z,1.77
2022-09-06T06:54:58.234Z,2.30
2022-09-06T06:57:28.702Z,2.03
2022-09-06T06:59:55.923Z,1.50
2022-09-06T07:02:23.293Z,1.25
2022-09-06T07:04:50.388Z,1.65
2022-09-06T07:07:34.437Z,1.77
2022-09-06T07:12:52.034Z,1.67
2022-09-06T07:15:19.605Z,1.80
2022-09-06T07:17:46.723Z,1.98
2022-09-06T07:20:14.633Z,1.80
2022-09-06T07:22:42.708Z,1.83
2022-09-06T07:25:12.760Z,1.67
2022-09-06T07:27:48.928Z,1.63
2022-09-06T07:30:16.950Z,1.65
2022-09-06T07:32:51.455Z,1.50
2022-09-06T07:35:20.640Z,1.90
2022-09-06T07:37:55.638Z,1.83
2022-09-06T07:40:27.279Z,1.35
2022-09-06T07:43:03.335Z,1.50
2022-09-06T07:45:30.390Z,1.50
2022-09-06T07:48:01.485Z,1.13
2022-09-06T07:50:47.665Z,1.85
2022-09-06T07:53:31.069Z,1.45
2022-09-06T07:56:03.510Z,2.28
2022-09-06T07:59:10.709Z,1.85
2022-09-06T08:01:39.304Z,1.92
2022-09-06T08:04:13.013Z,1.45
2022-09-06T08:09:30.927Z,1.90
2022-09-06T08:12:01.416Z,1.70
2022-09-06T08:14:30.886Z,1.42
2022-09-06T08:16:58.681Z,1.65
2022-09-06T08:19:26.222Z,1.30
2022-09-06T08:21:59.094Z,1.30
2022-09-06T08:24:30.046Z,1.45
2022-09-06T08:26:57.184Z,1.55
2022-09-06T08:29:24.278Z,1.60
2022-09-06T08:31:51.391Z,1.58
2022-09-06T08:34:18.587Z,1.50
2022-09-06T08:36:46.083Z,1.13
2022-09-06T08:39:13.164Z,1.00
2022-09-06T08:41:58.679Z,1.25
2022-09-06T08:47:24.849Z,1.05
2022-09-06T08:50:12.036Z,1.67
2022-09-06T08:52:49.545Z,1.48
2022-09-06T08:55:41.308Z,1.05
2022-09-06T08:58:32.342Z,0.85
2022-09-06T09:01:25.485Z,1.35
2022-09-06T09:03:57.248Z,1.25
2022-09-06T09:06:25.694Z,1.10
2022-09-06T09:09:00.986Z,0.95
2022-09-06T09:11:30.059Z,0.98
2022-09-06T09:14:34.013Z,0.90
2022-09-06T09:17:28.506Z,1.35
2022-09-06T09:19:56.890Z,1.23
2022-09-06T09:22:30.151Z,1.23
2022-09-06T09:25:01.470Z,0.70
2022-09-06T09:27:31.882Z,1.02
2022-09-06T09:32:53.926Z,0.90
2022-09-06T09:35:29.918Z,1.35
2022-09-06T09:38:24.955Z,1.30
2022-09-06T09:41:05.822Z,1.15
2022-09-06T09:43:44.607Z,1.33
2022-09-06T09:46:17.324Z,1.23
2022-09-06T09:49:23.690Z,1.40
2022-09-06T09:52:13.144Z,1.00
2022-09-06T09:56:58.009Z,1.83
2022-09-06T09:58:50.445Z,1.23
2022-09-06T10:01:42.290Z,1.10
2022-09-06T10:07:18.726Z,1.40
2022-09-06T10:09:54.651Z,1.27
2022-09-06T10:12:41.208Z,1.20
2022-09-06T10:16:04.785Z,1.27
2022-09-06T10:18:54.707Z,1.30
2022-09-06T10:21:31.739Z,1.23
2022-09-06T10:24:54.446Z,1.30
2022-09-06T10:27:28.058Z,1.20
2022-09-06T10:30:04.685Z,1.20
2022-09-06T10:32:44.516Z,1.60
2022-09-06T10:35:46.936Z,1.42
2022-09-06T10:38:44.988Z,1.52
2022-09-06T10:41:21.015Z,1.60
2022-09-06T10:43:57.254Z,1.13
2022-09-06T10:46:28.313Z,1.33
2022-09-06T10:48:55.607Z,1.23
2022-09-06T10:51:38.826Z,1.20
2022-09-06T10:54:11.876Z,1.55
2022-09-06T10:56:57.586Z,0.98
2022-09-06T10:59:36.633Z,1.33
2022-09-06T11:02:41.163Z,0.90
2022-09-06T11:10:55.542Z,1.40
2022-09-06T11:13:27.502Z,0.93
2022-09-06T11:16:08.197Z,1.10
2022-09-06T11:18:41.941Z,1.20
2022-09-06T11:24:00.031Z,0.82
2022-09-06T11:26:34.695Z,1.15
2022-09-06T11:29:09.333Z,1.00
2022-09-06T11:34:41.264Z,1.25
2022-09-06T11:37:24.453Z,1.02
2022-09-06T11:42:53.638Z,1.10
2022-09-06T11:45:53.000Z,1.42
2022-09-06T11:48:44.289Z,1.55
2022-09-06T11:51:12.570Z,1.33
2022-09-06T11:53:49.045Z,1.35
2022-09-06T11:56:35.440Z,1.75
2022-09-06T11:59:20.635Z,1.15
2022-09-06T12:01:56.479Z,1.17
2022-09-06T12:04:23.941Z,1.40
2022-09-06T12:07:12.489Z,1.38
2022-09-06T12:09:46.025Z,1.13
2022-09-06T12:15:23.901Z,1.05
2022-09-06T12:17:51.175Z,1.38
2022-09-06T12:20:46.207Z,0.95
2022-09-06T12:23:37.453Z,1.42
2022-09-06T12:26:13.822Z,1.25
2022-09-06T12:28:47.383Z,1.13
2022-09-06T12:31:31.530Z,1.50
2022-09-06T12:34:05.718Z,1.48
2022-09-06T12:36:33.663Z,1.13
2022-09-06T12:39:02.075Z,1.30
2022-09-06T12:41:42.966Z,1.45
2022-09-06T12:44:11.768Z,1.30
2022-09-06T12:46:45.608Z,1.38
2022-09-06T12:49:21.323Z,1.45
2022-09-06T12:51:48.719Z,1.95
2022-09-06T12:54:21.184Z,1.23
2022-09-06T12:56:48.830Z,1.70
2022-09-06T12:59:25.094Z,1.67
2022-09-06T13:06:42.090Z,1.33
2022-09-06T13:09:14.445Z,1.70
2022-09-06T13:12:06.579Z,1.67
2022-09-06T13:14:37.378Z,1.55
2022-09-06T13:18:08.914Z,2.08
2022-09-06T13:20:34.505Z,2.15
2022-09-06T13:23:13.221Z,1.80
2022-09-06T13:26:01.251Z,1.92
2022-09-06T13:28:37.043Z,1.80
2022-09-06T13:31:17.916Z,1.52
2022-09-06T13:33:59.608Z,1.88
2022-09-06T13:36:34.426Z,1.23
2022-09-06T13:39:04.645Z,2.05
2022-09-06T13:42:07.769Z,1.65
2022-09-06T13:44:37.865Z,1.30
2022-09-06T13:47:08.452Z,1.40
2022-09-06T13:49:35.714Z,1.55
2022-09-06T13:52:04.404Z,1.88
2022-09-06T13:54:34.735Z,1.70
2022-09-06T13:57:02.018Z,1.63
2022-09-06T13:59:30.438Z,1.73
2022-09-06T14:02:15.965Z,1.33
2022-09-06T14:04:46.806Z,1.88
2022-09-06T14:07:13.938Z,1.90
2022-09-06T14:09:40.991Z,1.17
2022-09-06T14:12:09.397Z,1.20
2022-09-06T14:14:36.943Z,1.38
2022-09-06T14:17:05.433Z,1.63
2022-09-06T14:19:32.978Z,1.98
2022-09-06T14:21:59.979Z,1.25
2022-09-06T14:24:26.946Z,1.67
2022-09-06T14:26:54.047Z,2.40
2022-09-06T14:29:21.211Z,1.88
2022-09-06T14:31:49.081Z,1.45
2022-09-06T14:34:27.160Z,1.55
2022-09-06T14:36:54.444Z,1.88
2022-09-06T14:39:21.801Z,1.92
2022-09-06T14:41:52.322Z,1.80
2022-09-06T14:44:19.717Z,1.48
2022-09-06T14:49:30.903Z,1.73
2022-09-06T14:51:58.122Z,1.58
2022-09-06T14:54:29.101Z,1.60
2022-09-06T14:56:59.058Z,1.55
2022-09-06T14:59:26.223Z,2.70
2022-09-06T15:01:53.438Z,2.30
2022-09-06T15:04:20.732Z,1.23
2022-09-06T15:06:48.611Z,1.75
2022-09-06T15:09:16.966Z,1.58
2022-09-06T15:11:48.650Z,1.73
2022-09-06T15:14:25.197Z,1.52
2022-09-06T15:16:56.506Z,1.38
2022-09-06T15:19:28.826Z,1.50
2022-09-06T15:21:57.486Z,1.25
2022-09-06T15:24:25.569Z,2.30
2022-09-06T15:26:52.765Z,1.30
2022-09-06T15:29:20.588Z,1.85
2022-09-06T15:31:50.699Z,1.40
2022-09-06T15:34:19.234Z,1.58
2022-09-06T15:36:46.427Z,1.25
2022-09-06T15:39:14.585Z,1.45
2022-09-06T15:41:41.882Z,1.20
2022-09-06T15:44:14.301Z,1.20
2022-09-06T15:46:43.170Z,1.73
2022-09-06T15:49:15.980Z,0.93
2022-09-06T15:51:43.435Z,1.47
2022-09-06T15:54:13.090Z,1.13
2022-09-06T15:56:40.973Z,1.33
2022-09-06T15:59:11.389Z,1.60
2022-09-06T16:01:40.174Z,1.25
2022-09-06T16:04:07.425Z,1.33
2022-09-06T16:06:42.196Z,1.60
2022-09-06T16:09:14.457Z,1.27
2022-09-06T16:11:42.550Z,1.35
2022-09-06T16:14:13.182Z,1.50
2022-09-06T16:16:41.924Z,1.00
2022-09-06T16:19:10.592Z,0.85
2022-09-06T16:21:39.525Z,1.48
2022-09-06T16:24:08.750Z,1.27
2022-09-06T16:26:40.047Z,1.88
2022-09-06T16:29:09.357Z,1.40
2022-09-06T16:31:40.490Z,1.80
2022-09-06T16:34:12.240Z,1.45
2022-09-06T16:36:40.128Z,1.65
2022-09-06T16:39:08.863Z,1.90
2022-09-06T16:41:46.295Z,2.70
2022-09-06T16:44:18.978Z,2.08
2022-09-06T16:46:53.863Z,1.90
2022-09-06T16:49:21.068Z,1.20
2022-09-06T16:51:50.205Z,1.77
2022-09-06T16:54:20.425Z,1.58
2022-09-06T16:56:48.054Z,1.73
2022-09-06T16:59:18.254Z,1.83
2022-09-06T17:01:45.944Z,1.92
2022-09-06T17:04:16.345Z,1.63
2022-09-06T17:06:47.059Z,2.22
2022-09-06T17:09:16.347Z,1.70
2022-09-06T17:11:51.021Z,1.75
2022-09-06T17:14:18.719Z,1.80
2022-09-06T17:17:05.098Z,1.45
2022-09-06T17:19:41.925Z,1.67
2022-09-06T17:22:11.333Z,1.70
2022-09-06T17:24:39.619Z,1.63
2022-09-06T17:27:07.176Z,1.42
2022-09-06T17:29:35.124Z,1.63
2022-09-06T17:32:04.761Z,1.00
2022-09-06T17:34:31.838Z,2.00
2022-09-06T17:37:03.826Z,1.50
2022-09-06T17:39:31.211Z,1.90
2022-09-06T17:41:59.348Z,1.50
2022-09-06T17:44:35.609Z,1.70
2022-09-06T17:47:19.120Z,1.45
2022-09-06T17:49:47.439Z,1.67
2022-09-06T18:02:03.985Z,1.23
2022-09-06T18:04:40.961Z,1.50
2022-09-06T18:07:08.194Z,2.10
2022-09-06T18:09:37.227Z,1.52
2022-09-06T18:12:17.029Z,1.48
2022-09-06T18:14:53.396Z,1.38
2022-09-06T18:17:20.750Z,2.00
2022-09-06T18:20:13.761Z,1.25
2022-09-06T18:23:06.342Z,1.52
2022-09-06T18:25:33.718Z,1.73
2022-09-06T18:28:00.972Z,1.35
2022-09-06T18:30:28.229Z,1.42
2022-09-06T18:32:55.994Z,1.52
2022-09-06T18:35:23.096Z,1.17
2022-09-06T18:37:50.223Z,1.73
2022-09-06T18:40:23.219Z,1.73
2022-09-06T18:42:50.579Z,1.33
2022-09-06T18:45:29.474Z,1.38
2022-09-06T18:47:58.135Z,1.77
2022-09-06T18:50:27.484Z,1.55
2022-09-06T18:52:55.797Z,0.98
2022-09-06T18:55:27.396Z,1.67
2022-09-06T18:57:57.154Z,1.60
2022-09-06T19:00:29.653Z,2.00
2022-09-06T19:02:57.340Z,1.20
2022-09-06T19:05:27.492Z,1.65
2022-09-06T19:07:54.517Z,1.70
2022-09-06T19:10:21.691Z,1.98
2022-09-06T19:12:52.985Z,1.30
2022-09-06T19:15:21.859Z,1.98
2022-09-06T19:17:53.639Z,1.80
2022-09-06T19:21:01.148Z,1.70
2022-09-06T19:23:29.342Z,1.65
2022-09-06T19:26:05.494Z,1.98
2022-09-06T19:28:33.371Z,1.38
2022-09-06T19:31:11.642Z,1.55
2022-09-06T19:33:43.669Z,2.47
2022-09-06T19:36:12.869Z,1.23
2022-09-06T19:41:32.426Z,2.00
2022-09-06T19:44:00.353Z,1.52
2022-09-06T19:46:33.778Z,1.75
2022-09-06T19:49:16.757Z,2.42
2022-09-06T19:51:46.650Z,1.63
2022-09-06T19:54:19.959Z,1.70
2022-09-06T19:56:52.308Z,2.03
2022-09-06T19:59:19.677Z,1.83
2022-09-06T20:01:47.873Z,1.83
2022-09-06T20:04:15.571Z,2.25
2022-09-06T20:06:43.097Z,1.80
2022-09-06T20:09:11.002Z,2.00
2022-09-06T20:11:39.482Z,1.88
2022-09-06T20:14:06.622Z,2.05
2022-09-06T20:16:35.301Z,2.08
2022-09-06T20:19:05.335Z,1.73
2022-09-06T20:21:32.405Z,1.58
2022-09-06T20:23:59.730Z,2.20
2022-09-06T20:26:29.055Z,2.00
2022-09-06T20:29:02.276Z,1.80
2022-09-06T20:31:31.108Z,2.03
2022-09-06T20:34:02.862Z,1.70
2022-09-06T20:36:30.334Z,2.30
2022-09-06T20:38:57.471Z,2.08
2022-09-06T20:41:26.883Z,2.10
2022-09-06T20:43:57.075Z,1.80
2022-09-06T20:46:27.381Z,1.40
2022-09-06T20:48:57.941Z,1.42
2022-09-06T20:51:26.598Z,1.27
2022-09-06T20:53:56.096Z,1.55
2022-09-06T20:56:25.898Z,1.85
2022-09-06T20:58:55.179Z,1.92
2022-09-06T21:01:27.787Z,2.20
2022-09-06T21:03:57.294Z,2.20
2022-09-06T21:06:26.729Z,1.77
2022-09-06T21:08:54.172Z,1.63
2022-09-06T21:11:21.984Z,1.55
2022-09-06T21:13:55.887Z,2.00
2022-09-06T21:16:25.427Z,1.70
2022-09-06T21:18:54.331Z,1.70
2022-09-06T21:21:22.363Z,1.30
2022-09-06T21:23:49.723Z,2.08
2022-09-06T21:26:17.280Z,1.83
2022-09-06T21:28:46.289Z,2.00
2022-09-06T21:31:23.279Z,1.42
2022-09-06T21:33:55.384Z,1.90
2022-09-06T21:36:31.233Z,1.98
2022-09-06T21:39:01.956Z,1.92
2022-09-06T21:41:30.040Z,2.00
2022-09-06T21:43:59.051Z,1.73
2022-09-06T21:46:32.587Z,2.15
2022-09-06T21:49:04.089Z,1.67
2022-09-06T21:51:31.905Z,1.65
2022-09-06T21:53:59.670Z,1.67
2022-09-06T21:56:26.740Z,2.17
2022-09-06T21:58:55.829Z,1.33
2022-09-06T22:01:28.636Z,1.30
2022-09-06T22:03:56.119Z,1.60
2022-09-06T22:06:31.112Z,1.75
2022-09-06T22:09:12.218Z,1.65
2022-09-06T22:11:43.371Z,1.67
2022-09-06T22:14:14.783Z,1.42
2022-09-06T22:16:41.986Z,1.95
2022-09-06T22:19:10.101Z,2.10
2022-09-06T22:21:38.877Z,2.33
2022-09-06T22:24:11.460Z,1.65
2022-09-06T22:26:40.165Z,2.28
2022-09-06T22:29:12.448Z,1.77
2022-09-06T22:31:42.915Z,1.50
2022-09-06T22:34:13.224Z,1.48
2022-09-06T22:36:41.426Z,1.88
2022-09-06T22:39:09.766Z,1.38
2022-09-06T22:41:37.965Z,1.88
2022-09-06T22:44:05.259Z,1.58
2022-09-06T22:46:36.127Z,1.77
2022-09-06T22:49:04.220Z,1.98
2022-09-06T22:51:31.368Z,1.73
2022-09-06T22:54:12.313Z,1.67
2022-09-06T22:56:42.065Z,1.75
2022-09-06T22:59:09.142Z,2.03
2022-09-06T23:01:39.344Z,1.85
2022-09-06T23:04:10.213Z,1.10
2022-09-06T23:06:38.058Z,1.50
2022-09-06T23:09:07.030Z,1.58
2022-09-06T23:11:34.165Z,1.60
2022-09-06T23:14:01.724Z,1.77
2022-09-06T23:16:28.883Z,2.05
2022-09-06T23:18:56.382Z,2.03
2022-09-06T23:21:27.650Z,1.88
2022-09-06T23:23:55.869Z,1.60
2022-09-06T23:26:27.748Z,1.73
2022-09-06T23:29:00.280Z,1.85
2022-09-06T23:31:32.107Z,2.08
2022-09-06T23:34:02.881Z,1.75
2022-09-06T23:36:32.964Z,2.83
2022-09-06T23:39:04.645Z,4.57
2022-09-06T23:41:31.991Z,5.45
2022-09-06T23:43:59.237Z,5.95
2022-09-06T23:46:26.506Z,5.60
2022-09-06T23:48:53.497Z,6.32
2022-09-06T23:51:29.547Z,7.70
2022-09-06T23:53:56.788Z,8.82
2022-09-06T23:56:23.752Z,8.02
2022-09-06T23:58:53.029Z,6.32
